createdAt,value
2018-11-01T00:01:04.337Z,75.38
2018-11-01T00:03:32.938Z,75.41
2018-11-01T00:06:00.969Z,75.81
2018-11-01T00:08:28.986Z,75.78
2018-11-01T00:10:56.974Z,75.40
2018-11-01T00:13:24.970Z,75.36
2018-11-01T00:15:52.911Z,75.40
2018-11-01T00:18:20.840Z,75.87
2018-11-01T00:20:48.796Z,75.93
2018-11-01T00:23:16.742Z,75.81
2018-11-01T00:25:44.742Z,75.83
2018-11-01T00:28:12.632Z,75.59
2018-11-01T00:30:41.139Z,74.81
2018-11-01T00:33:09.144Z,75.69
2018-11-01T00:35:37.112Z,76.24
2018-11-01T00:38:05.573Z,75.81
2018-11-01T00:40:33.506Z,76.19
2018-11-01T00:43:01.459Z,75.31
2018-11-01T00:45:29.471Z,75.18
2018-11-01T00:47:57.501Z,75.32
2018-11-01T00:50:25.449Z,75.19
2018-11-01T00:52:53.405Z,75.29
2018-11-01T00:55:21.353Z,75.32
2018-11-01T00:57:49.340Z,75.43
2018-11-01T01:00:17.340Z,75.03
2018-11-01T01:02:45.281Z,75.54
2018-11-01T01:05:13.303Z,75.68
2018-11-01T01:07:41.329Z,75.16
2018-11-01T01:10:12.735Z,74.91
2018-11-01T01:12:41.345Z,74.74
2018-11-01T01:15:09.621Z,74.51
2018-11-01T01:17:37.728Z,74.59
2018-11-01T01:20:08.074Z,74.83
2018-11-01T01:22:36.069Z,74.52
2018-11-01T01:25:05.356Z,74.25
2018-11-01T01:27:33.228Z,74.19
2018-11-01T01:30:01.148Z,74.65
2018-11-01T01:32:29.099Z,74.72
2018-11-01T01:34:56.972Z,74.48
2018-11-01T01:37:24.860Z,74.41
2018-11-01T01:39:52.794Z,74.48
2018-11-01T01:42:20.788Z,74.96
2018-11-01T01:44:48.701Z,75.24
2018-11-01T01:47:16.654Z,75.17
2018-11-01T01:49:44.590Z,75.01
2018-11-01T01:52:12.622Z,75.20
2018-11-01T01:54:40.631Z,75.17
2018-11-01T01:57:08.530Z,75.31
2018-11-01T01:59:36.508Z,75.93
2018-11-01T02:02:04.859Z,75.93
2018-11-01T02:04:32.785Z,75.98
2018-11-01T02:07:00.689Z,76.16
2018-11-01T02:09:28.637Z,76.31
2018-11-01T02:11:56.719Z,76.70
2018-11-01T02:14:24.647Z,76.18
2018-11-01T02:16:52.567Z,75.89
2018-11-01T02:19:20.538Z,75.66
2018-11-01T02:21:48.522Z,76.48
2018-11-01T02:24:16.528Z,75.86
2018-11-01T02:26:44.596Z,76.00
2018-11-01T02:29:12.564Z,75.96
2018-11-01T02:31:40.534Z,76.24
2018-11-01T02:34:08.491Z,76.04
2018-11-01T02:36:36.444Z,75.53
2018-11-01T02:39:07.634Z,76.30
2018-11-01T02:41:35.629Z,75.80
2018-11-01T02:44:03.619Z,76.01
2018-11-01T02:46:31.501Z,76.28
2018-11-01T02:48:59.466Z,76.14
2018-11-01T02:51:27.741Z,75.73
2018-11-01T02:53:55.766Z,75.44
2018-11-01T02:56:23.708Z,75.52
2018-11-01T02:58:51.832Z,75.82
2018-11-01T03:01:19.812Z,75.37
2018-11-01T03:03:49.073Z,75.20
2018-11-01T03:06:17.764Z,75.03
2018-11-01T03:08:45.897Z,75.53
2018-11-01T03:11:13.944Z,75.52
2018-11-01T03:13:41.973Z,75.71
2018-11-01T03:16:09.969Z,75.51
2018-11-01T03:18:37.949Z,75.51
2018-11-01T03:21:05.986Z,75.24
2018-11-01T03:23:34.020Z,75.40
2018-11-01T03:26:02.043Z,75.54
2018-11-01T03:28:30.066Z,75.71
2018-11-01T03:30:58.093Z,76.05
2018-11-01T03:33:26.018Z,76.06
2018-11-01T03:35:54.031Z,75.83
2018-11-01T03:38:22.086Z,76.30
2018-11-01T03:40:49.967Z,76.32
2018-11-01T03:43:17.871Z,76.68
2018-11-01T03:45:45.865Z,76.42
2018-11-01T03:48:13.764Z,76.53
2018-11-01T03:50:41.725Z,76.12
2018-11-01T03:53:09.665Z,75.77
2018-11-01T03:55:37.641Z,76.51
2018-11-01T03:58:05.992Z,77.59
2018-11-01T04:00:33.976Z,78.73
2018-11-01T04:03:01.921Z,78.27
2018-11-01T04:05:30.624Z,77.94
2018-11-01T04:07:58.669Z,78.00
2018-11-01T04:10:26.579Z,77.61
2018-11-01T04:12:56.291Z,76.92
2018-11-01T04:15:24.402Z,76.34
2018-11-01T04:17:52.235Z,75.87
2018-11-01T04:20:20.234Z,75.80
2018-11-01T04:22:48.791Z,76.08
2018-11-01T04:25:17.608Z,76.95
2018-11-01T04:27:47.168Z,76.72
2018-11-01T04:30:15.176Z,76.22
2018-11-01T04:32:43.178Z,75.78
2018-11-01T04:35:11.167Z,75.72
2018-11-01T04:37:39.414Z,76.28
2018-11-01T04:40:07.851Z,76.39
2018-11-01T04:42:35.809Z,75.79
2018-11-01T04:45:03.907Z,76.62
2018-11-01T04:47:31.881Z,77.00
2018-11-01T04:49:59.825Z,76.84
2018-11-01T04:52:27.785Z,77.31
2018-11-01T04:54:55.794Z,76.98
2018-11-01T04:57:23.815Z,76.79
2018-11-01T04:59:51.765Z,76.61
2018-11-01T05:02:20.166Z,77.63
2018-11-01T05:04:48.191Z,77.68
2018-11-01T05:07:16.226Z,77.84
2018-11-01T05:09:44.158Z,77.10
2018-11-01T05:12:12.114Z,76.89
2018-11-01T05:14:40.077Z,77.03
2018-11-01T05:17:08.036Z,77.11
2018-11-01T05:19:35.974Z,76.73
2018-11-01T05:22:04.670Z,76.64
2018-11-01T05:24:32.572Z,76.63
2018-11-01T05:27:00.501Z,76.61
2018-11-01T05:29:28.451Z,76.29
2018-11-01T05:31:56.420Z,76.31
2018-11-01T05:34:24.369Z,76.28
2018-11-01T05:36:52.314Z,76.28
2018-11-01T05:39:20.303Z,76.47
2018-11-01T05:41:48.223Z,76.06
2018-11-01T05:44:16.180Z,75.71
2018-11-01T05:46:44.217Z,75.71
2018-11-01T05:49:12.188Z,75.32
2018-11-01T05:51:40.133Z,75.81
2018-11-01T05:54:08.013Z,75.91
2018-11-01T05:56:35.971Z,75.50
2018-11-01T05:59:04.020Z,75.74
2018-11-01T06:01:33.352Z,75.86
2018-11-01T06:04:01.928Z,75.85
2018-11-01T06:06:29.833Z,75.94
2018-11-01T06:08:58.996Z,76.08
2018-11-01T06:11:26.880Z,75.94
2018-11-01T06:13:54.868Z,75.62
2018-11-01T06:16:22.860Z,75.53
2018-11-01T06:18:50.808Z,75.48
2018-11-01T06:21:18.745Z,75.15
2018-11-01T06:23:46.663Z,75.80
2018-11-01T06:26:14.756Z,76.05
2018-11-01T06:28:42.719Z,75.85
2018-11-01T06:31:10.665Z,75.65
2018-11-01T06:33:38.737Z,75.66
2018-11-01T06:36:08.800Z,75.25
2018-11-01T06:38:36.801Z,75.34
2018-11-01T06:41:04.763Z,75.55
2018-11-01T06:43:32.688Z,75.67
2018-11-01T06:46:00.725Z,75.48
2018-11-01T06:48:28.703Z,75.64
2018-11-01T06:50:56.626Z,75.59
2018-11-01T06:53:24.565Z,75.07
2018-11-01T06:55:52.454Z,75.31
2018-11-01T06:58:20.415Z,75.02
2018-11-01T07:00:48.404Z,74.97
2018-11-01T07:03:16.353Z,75.08
2018-11-01T07:05:44.325Z,74.95
2018-11-01T07:08:12.271Z,74.84
2018-11-01T07:10:40.357Z,75.01
2018-11-01T07:13:08.323Z,74.65
2018-11-01T07:15:36.365Z,74.67
2018-11-01T07:18:04.528Z,74.91
2018-11-01T07:20:32.510Z,74.78
2018-11-01T07:23:01.444Z,73.75
2018-11-01T07:25:29.570Z,73.82
2018-11-01T07:27:57.445Z,73.62
2018-11-01T07:30:25.554Z,73.86
2018-11-01T07:32:53.547Z,73.96
2018-11-01T07:35:21.544Z,73.99
2018-11-01T07:37:49.568Z,73.70
2018-11-01T07:40:17.992Z,74.07
2018-11-01T07:42:46.070Z,73.85
2018-11-01T07:45:14.660Z,73.21
2018-11-01T07:47:43.445Z,73.49
2018-11-01T07:50:12.471Z,73.32
2018-11-01T07:52:40.917Z,73.14
2018-11-01T07:55:11.353Z,72.60
2018-11-01T07:57:39.265Z,72.33
2018-11-01T08:00:10.677Z,72.17
2018-11-01T08:02:38.675Z,71.89
2018-11-01T08:05:08.022Z,71.85
2018-11-01T08:07:36.169Z,71.43
2018-11-01T08:10:06.084Z,71.34
2018-11-01T08:12:34.172Z,71.69
2018-11-01T08:15:02.240Z,71.04
2018-11-01T08:17:30.237Z,70.22
2018-11-01T08:19:58.444Z,70.68
2018-11-01T08:22:26.353Z,70.74
2018-11-01T08:24:54.360Z,71.12
2018-11-01T08:27:22.324Z,70.97
2018-11-01T08:29:50.373Z,70.42
2018-11-01T08:32:18.446Z,70.37
2018-11-01T08:34:46.454Z,70.92
2018-11-01T08:37:14.762Z,70.31
2018-11-01T08:39:42.709Z,70.53
2018-11-01T08:42:13.279Z,70.41
2018-11-01T08:44:41.353Z,70.35
2018-11-01T08:47:09.960Z,70.04
2018-11-01T08:49:38.012Z,70.07
2018-11-01T08:52:06.028Z,70.00
2018-11-01T08:54:45.929Z,69.03
2018-11-01T08:57:14.101Z,69.19
2018-11-01T08:59:42.406Z,68.37
2018-11-01T09:02:10.402Z,68.22
2018-11-01T09:04:38.485Z,67.86
2018-11-01T09:07:06.479Z,68.00
2018-11-01T09:09:34.503Z,68.02
2018-11-01T09:12:02.599Z,67.72
2018-11-01T09:14:30.648Z,67.52
2018-11-01T09:16:58.614Z,67.37
2018-11-01T09:19:27.343Z,67.56
2018-11-01T09:21:55.325Z,67.05
2018-11-01T09:24:23.345Z,66.73
2018-11-01T09:26:51.369Z,66.37
2018-11-01T09:29:19.290Z,65.18
2018-11-01T09:31:47.257Z,65.33
2018-11-01T09:34:15.255Z,65.13
2018-11-01T09:36:43.349Z,63.95
2018-11-01T09:39:12.091Z,64.92
2018-11-01T09:41:40.756Z,65.05
2018-11-01T09:44:08.731Z,63.78
2018-11-01T09:46:37.093Z,64.29
2018-11-01T09:49:05.581Z,64.40
2018-11-01T09:51:33.623Z,64.39
2018-11-01T09:54:01.592Z,64.30
2018-11-01T09:56:29.647Z,63.53
2018-11-01T09:58:59.011Z,63.65
2018-11-01T10:01:27.054Z,64.08
2018-11-01T10:03:55.053Z,63.27
2018-11-01T10:06:23.649Z,63.62
2018-11-01T10:08:51.599Z,63.92
2018-11-01T10:11:19.601Z,63.43
2018-11-01T10:13:47.547Z,63.17
2018-11-01T10:16:15.682Z,63.14
2018-11-01T10:18:43.577Z,63.42
2018-11-01T10:21:11.678Z,63.61
2018-11-01T10:23:39.846Z,62.98
2018-11-01T10:26:07.852Z,62.86
2018-11-01T10:28:35.893Z,62.69
2018-11-01T10:31:04.499Z,62.84
2018-11-01T10:33:33.031Z,62.81
2018-11-01T10:36:01.811Z,62.63
2018-11-01T10:38:29.891Z,62.35
2018-11-01T10:40:58.093Z,62.34
2018-11-01T10:43:26.048Z,61.87
2018-11-01T10:45:54.025Z,61.78
2018-11-01T10:48:22.009Z,62.28
2018-11-01T10:50:50.056Z,62.78
2018-11-01T10:53:18.092Z,62.15
2018-11-01T10:55:46.562Z,61.82
2018-11-01T10:58:14.504Z,61.55
2018-11-01T11:00:48.092Z,61.02
2018-11-01T11:03:16.093Z,62.16
2018-11-01T11:05:44.030Z,61.90
2018-11-01T11:08:11.952Z,60.81
2018-11-01T11:10:39.955Z,61.02
2018-11-01T11:13:07.895Z,60.17
2018-11-01T11:15:35.957Z,60.67
2018-11-01T11:18:03.914Z,59.94
2018-11-01T11:20:32.039Z,59.16
2018-11-01T11:22:59.893Z,60.19
2018-11-01T11:25:27.871Z,60.82
2018-11-01T11:27:55.865Z,62.16
2018-11-01T11:30:24.354Z,61.37
2018-11-01T11:32:52.249Z,60.16
2018-11-01T11:35:20.227Z,60.17
2018-11-01T11:37:48.224Z,60.22
2018-11-01T11:40:16.220Z,60.94
2018-11-01T11:42:44.281Z,60.56
2018-11-01T11:45:12.897Z,61.12
2018-11-01T11:47:41.455Z,60.94
2018-11-01T11:50:10.920Z,60.13
2018-11-01T11:52:38.949Z,60.40
2018-11-01T11:55:07.512Z,60.05
2018-11-01T11:57:35.543Z,60.61
2018-11-01T12:00:03.862Z,62.19
2018-11-01T12:02:31.953Z,63.08
2018-11-01T12:04:59.930Z,63.46
2018-11-01T12:07:27.976Z,63.71
2018-11-01T12:09:56.039Z,63.55
2018-11-01T12:12:24.037Z,62.74
2018-11-01T12:14:52.052Z,62.45
2018-11-01T12:17:20.126Z,62.87
2018-11-01T12:19:48.091Z,63.74
2018-11-01T12:22:16.369Z,64.01
2018-11-01T12:24:44.811Z,63.94
2018-11-01T12:27:12.763Z,63.60
2018-11-01T12:29:40.674Z,63.29
2018-11-01T12:32:08.731Z,62.03
2018-11-01T12:34:36.676Z,62.90
2018-11-01T12:37:08.343Z,63.33
2018-11-01T12:39:36.291Z,63.43
2018-11-01T12:42:04.347Z,64.51
2018-11-01T12:44:32.358Z,63.97
2018-11-01T12:47:00.315Z,64.65
2018-11-01T12:49:28.225Z,63.80
2018-11-01T12:51:56.198Z,64.05
2018-11-01T12:54:24.179Z,63.87
2018-11-01T12:56:54.852Z,64.08
2018-11-01T12:59:22.774Z,63.69
2018-11-01T13:01:50.793Z,63.81
2018-11-01T13:04:18.964Z,63.82
2018-11-01T13:06:47.007Z,64.38
2018-11-01T13:09:14.931Z,64.93
2018-11-01T13:11:43.168Z,64.92
2018-11-01T13:14:11.115Z,64.87
2018-11-01T13:16:39.504Z,64.73
2018-11-01T13:19:07.524Z,65.10
2018-11-01T13:21:35.522Z,65.07
2018-11-01T13:24:03.520Z,64.89
2018-11-01T13:26:34.201Z,64.30
2018-11-01T13:29:02.195Z,64.69
2018-11-01T13:31:30.199Z,64.38
2018-11-01T13:33:58.269Z,64.65
2018-11-01T13:36:26.247Z,64.55
2018-11-01T13:38:54.209Z,64.61
2018-11-01T13:41:22.319Z,64.87
2018-11-01T13:43:50.377Z,64.39
2018-11-01T13:46:18.571Z,64.53
2018-11-01T13:48:47.303Z,64.65
2018-11-01T13:51:16.084Z,64.97
2018-11-01T13:53:44.108Z,64.73
2018-11-01T13:56:12.018Z,64.98
2018-11-01T13:58:40.001Z,65.21
2018-11-01T14:01:08.102Z,64.84
2018-11-01T14:03:36.020Z,65.36
2018-11-01T14:06:04.027Z,65.97
2018-11-01T14:08:31.981Z,66.15
2018-11-01T14:10:59.902Z,66.16
2018-11-01T14:13:28.123Z,65.72
2018-11-01T14:15:55.977Z,65.94
2018-11-01T14:18:23.934Z,66.01
2018-11-01T14:20:51.902Z,66.37
2018-11-01T14:23:19.848Z,66.41
2018-11-01T14:25:47.917Z,66.26
2018-11-01T14:28:16.050Z,66.05
2018-11-01T14:30:44.154Z,66.42
2018-11-01T14:33:12.154Z,66.40
2018-11-01T14:35:40.059Z,66.57
2018-11-01T14:38:08.155Z,66.50
2018-11-01T14:40:36.091Z,66.66
2018-11-01T14:43:04.612Z,66.79
2018-11-01T14:45:33.208Z,66.86
2018-11-01T14:48:01.149Z,67.27
2018-11-01T14:50:29.084Z,67.39
2018-11-01T14:52:57.210Z,67.21
2018-11-01T14:55:26.231Z,67.13
2018-11-01T14:58:00.093Z,67.12
2018-11-01T15:00:26.545Z,67.42
2018-11-01T15:02:59.549Z,67.71
2018-11-01T15:05:30.581Z,67.46
2018-11-01T15:07:58.613Z,67.65
2018-11-01T15:10:27.384Z,67.78
2018-11-01T15:13:05.597Z,68.01
2018-11-01T15:15:36.681Z,68.13
2018-11-01T15:18:04.891Z,68.43
2018-11-01T15:20:33.869Z,68.40
2018-11-01T15:23:02.065Z,68.68
2018-11-01T15:25:31.656Z,69.06
2018-11-01T15:27:59.638Z,69.30
2018-11-01T15:30:27.759Z,69.68
2018-11-01T15:32:56.413Z,69.71
2018-11-01T15:35:24.527Z,69.96
2018-11-01T15:37:55.027Z,70.20
2018-11-01T15:40:23.190Z,70.34
2018-11-01T15:42:51.232Z,70.36
2018-11-01T15:45:19.294Z,70.50
2018-11-01T15:47:47.451Z,70.27
2018-11-01T15:50:15.467Z,70.42
2018-11-01T15:52:44.539Z,70.40
2018-11-01T15:55:12.571Z,70.58
2018-11-01T15:57:40.619Z,70.56
2018-11-01T16:00:10.662Z,70.65
2018-11-01T16:02:39.992Z,70.81
2018-11-01T16:05:08.169Z,70.80
2018-11-01T16:07:36.317Z,70.93
2018-11-01T16:10:05.667Z,71.16
2018-11-01T16:12:33.815Z,71.36
2018-11-01T16:15:01.764Z,71.33
2018-11-01T16:17:29.925Z,71.45
2018-11-01T16:19:58.211Z,71.86
2018-11-01T16:22:27.321Z,72.02
2018-11-01T16:24:55.360Z,72.13
2018-11-01T16:27:23.365Z,72.07
2018-11-01T16:29:51.332Z,72.49
2018-11-01T16:32:19.447Z,72.61
2018-11-01T16:34:47.575Z,72.64
2018-11-01T16:37:15.643Z,72.90
2018-11-01T16:39:43.635Z,73.10
2018-11-01T16:42:11.693Z,73.15
2018-11-01T16:44:39.600Z,73.14
2018-11-01T16:47:07.706Z,73.71
2018-11-01T16:49:36.276Z,73.49
2018-11-01T16:52:04.334Z,73.57
2018-11-01T16:54:32.381Z,73.60
2018-11-01T16:57:00.784Z,73.72
2018-11-01T16:59:28.894Z,74.62
2018-11-01T17:01:57.258Z,74.49
2018-11-01T17:04:25.284Z,74.18
2018-11-01T17:06:53.230Z,74.24
2018-11-01T17:09:21.307Z,74.29
2018-11-01T17:11:49.380Z,74.52
2018-11-01T17:14:18.131Z,74.46
2018-11-01T17:16:46.215Z,74.46
2018-11-01T17:19:14.212Z,74.55
2018-11-01T17:21:42.470Z,74.67
2018-11-01T17:24:10.448Z,74.90
2018-11-01T17:26:38.448Z,75.56
2018-11-01T17:29:06.474Z,75.14
2018-11-01T17:31:34.448Z,75.14
2018-11-01T17:34:02.494Z,75.08
2018-11-01T17:36:30.522Z,75.09
2018-11-01T17:38:58.528Z,75.17
2018-11-01T17:41:26.468Z,75.19
2018-11-01T17:43:54.471Z,75.41
2018-11-01T17:46:22.538Z,75.16
2018-11-01T17:48:50.528Z,75.19
2018-11-01T17:51:18.613Z,75.14
2018-11-01T17:53:46.536Z,75.24
2018-11-01T17:56:14.725Z,75.71
2018-11-01T17:58:42.702Z,75.52
2018-11-01T18:01:10.691Z,75.24
2018-11-01T18:03:38.717Z,75.18
2018-11-01T18:06:06.724Z,75.30
2018-11-01T18:08:34.947Z,75.25
2018-11-01T18:11:02.897Z,75.34
2018-11-01T18:13:30.872Z,75.37
2018-11-01T18:15:58.888Z,75.35
2018-11-01T18:18:26.929Z,75.39
2018-11-01T18:20:55.189Z,75.40
2018-11-01T18:23:23.511Z,75.44
2018-11-01T18:25:51.733Z,75.58
2018-11-01T18:28:20.644Z,75.53
2018-11-01T18:30:48.960Z,75.82
2018-11-01T18:33:17.465Z,76.08
2018-11-01T18:35:45.430Z,75.86
2018-11-01T18:38:13.511Z,75.76
2018-11-01T18:40:41.529Z,76.00
2018-11-01T18:43:09.593Z,75.92
2018-11-01T18:45:37.585Z,75.84
2018-11-01T18:48:05.771Z,75.74
2018-11-01T18:50:33.768Z,75.90
2018-11-01T18:53:01.784Z,75.85
2018-11-01T18:55:29.753Z,75.87
2018-11-01T18:57:57.880Z,75.83
2018-11-01T19:00:25.961Z,75.92
2018-11-01T19:02:53.997Z,76.06
2018-11-01T19:05:22.115Z,76.19
2018-11-01T19:07:50.203Z,76.16
2018-11-01T19:10:18.240Z,76.12
2018-11-01T19:12:46.248Z,75.85
2018-11-01T19:15:14.891Z,75.80
2018-11-01T19:17:43.176Z,75.96
2018-11-01T19:20:12.000Z,75.94
2018-11-01T19:22:40.125Z,75.80
2018-11-01T19:25:08.899Z,75.79
2018-11-01T19:27:37.371Z,75.91
2018-11-01T19:30:06.549Z,75.81
2018-11-01T19:32:34.592Z,75.84
2018-11-01T19:35:02.716Z,75.73
2018-11-01T19:37:30.784Z,76.25
2018-11-01T19:39:58.952Z,76.43
2018-11-01T19:42:26.985Z,76.38
2018-11-01T19:44:55.014Z,76.06
2018-11-01T19:47:23.042Z,76.35
2018-11-01T19:49:51.087Z,76.52
2018-11-01T19:52:19.124Z,76.46
2018-11-01T19:54:47.191Z,77.00
2018-11-01T19:57:15.145Z,76.85
2018-11-01T19:59:43.115Z,77.01
2018-11-01T20:02:11.159Z,77.08
2018-11-01T20:04:39.173Z,77.34
2018-11-01T20:07:07.198Z,77.28
2018-11-01T20:09:35.246Z,77.35
2018-11-01T20:12:03.378Z,77.28
2018-11-01T20:14:31.402Z,77.21
2018-11-01T20:16:59.317Z,77.19
2018-11-01T20:19:27.338Z,76.86
2018-11-01T20:21:55.242Z,77.50
2018-11-01T20:24:23.211Z,77.20
2018-11-01T20:26:51.152Z,77.33
2018-11-01T20:29:19.104Z,77.41
2018-11-01T20:31:47.220Z,77.39
2018-11-01T20:34:15.874Z,77.48
2018-11-01T20:36:43.929Z,77.54
2018-11-01T20:39:13.528Z,77.57
2018-11-01T20:41:41.837Z,77.45
2018-11-01T20:44:11.449Z,77.24
2018-11-01T20:46:39.742Z,77.51
2018-11-01T20:49:07.762Z,77.56
2018-11-01T20:51:35.995Z,77.54
2018-11-01T20:54:04.338Z,77.36
2018-11-01T20:56:32.321Z,77.28
2018-11-01T20:59:00.248Z,77.54
2018-11-01T21:01:28.315Z,77.50
2018-11-01T21:03:56.317Z,77.85
2018-11-01T21:06:24.286Z,77.81
2018-11-01T21:08:52.694Z,77.78
2018-11-01T21:11:27.398Z,77.85
2018-11-01T21:13:55.245Z,78.02
2018-11-01T21:16:23.519Z,78.03
2018-11-01T21:18:51.457Z,77.93
2018-11-01T21:21:19.453Z,78.25
2018-11-01T21:23:47.590Z,78.60
2018-11-01T21:26:15.644Z,78.63
2018-11-01T21:28:43.859Z,78.32
2018-11-01T21:31:12.946Z,78.35
2018-11-01T21:33:40.937Z,79.12
2018-11-01T21:36:09.033Z,78.94
2018-11-01T21:38:37.181Z,78.98
2018-11-01T21:41:05.298Z,78.75
2018-11-01T21:43:33.246Z,78.76
2018-11-01T21:46:01.320Z,78.91
2018-11-01T21:48:29.388Z,78.78
2018-11-01T21:50:57.378Z,78.89
2018-11-01T21:53:25.415Z,78.76
2018-11-01T21:55:53.469Z,78.97
2018-11-01T21:58:21.471Z,78.94
2018-11-01T22:00:49.451Z,78.62
2018-11-01T22:03:17.472Z,78.68
2018-11-01T22:05:45.444Z,78.78
2018-11-01T22:08:13.392Z,78.82
2018-11-01T22:10:41.453Z,78.58
2018-11-01T22:13:09.428Z,78.68
2018-11-01T22:15:37.449Z,79.00
2018-11-01T22:18:05.952Z,78.92
2018-11-01T22:20:34.040Z,78.66
2018-11-01T22:23:02.044Z,78.73
2018-11-01T22:25:30.025Z,78.81
2018-11-01T22:27:58.097Z,78.54
2018-11-01T22:30:26.042Z,78.06
2018-11-01T22:32:54.102Z,78.06
2018-11-01T22:35:22.107Z,78.49
2018-11-01T22:37:50.115Z,78.47
2018-11-01T22:40:18.106Z,78.63
2018-11-01T22:42:46.062Z,78.51
2018-11-01T22:45:14.083Z,78.51
2018-11-01T22:47:42.046Z,78.20
2018-11-01T22:50:10.776Z,78.69
2018-11-01T22:52:39.219Z,78.79
2018-11-01T22:55:08.586Z,78.66
2018-11-01T22:57:36.582Z,78.46
2018-11-01T23:00:06.104Z,78.51
2018-11-01T23:02:33.998Z,78.88
2018-11-01T23:05:02.064Z,78.35
2018-11-01T23:07:30.085Z,78.52
2018-11-01T23:09:58.170Z,78.35
2018-11-01T23:12:26.173Z,78.43
2018-11-01T23:14:54.209Z,78.36
2018-11-01T23:17:22.233Z,78.58
2018-11-01T23:19:50.257Z,78.92
2018-11-01T23:22:18.513Z,78.84
2018-11-01T23:24:46.514Z,78.64
2018-11-01T23:27:14.625Z,78.64
2018-11-01T23:29:42.666Z,78.81
2018-11-01T23:32:10.656Z,78.73
2018-11-01T23:34:38.632Z,78.56
2018-11-01T23:37:12.625Z,77.89
2018-11-01T23:39:46.243Z,78.30
2018-11-01T23:42:21.233Z,78.12
2018-11-01T23:44:54.798Z,78.49
2018-11-01T23:47:28.439Z,78.47
2018-11-01T23:50:01.789Z,78.57
2018-11-01T23:52:30.167Z,79.04
2018-11-01T23:54:58.138Z,78.73
2018-11-01T23:57:26.220Z,78.43
2018-11-01T23:59:54.168Z,78.64
